Time;durP1;ratioP1;P1;durP2;ratioP2;P2;SDS_P1;SDS_P2;PMS_P1;PMS_P2;Temp;Humidity;BMP_temperature;BMP_pressure;BME280_temperature;BME280_humidity;BME280_pressure;Samples;Min_cycle;Max_cycle;Signal;HPM_P1;HPM_P2
2022/07/17 16:11:12;;;;;;;;;2.00;2.00;;;;;44.93;8.33;102011.50;5127110;27;49686;-65
2022/07/17 16:13:37;;;;;;;;;1.75;1.75;;;;;45.40;8.47;102011.09;5109059;27;49719;-73
2022/07/17 16:16:03;;;;;;;;;1.00;1.00;;;;;45.37;8.15;101993.75;5109833;27;49755;-74
2022/07/17 16:18:28;;;;;;;;;0.00;0.00;;;;;45.48;7.86;101997.25;5111118;27;52013;-75
2022/07/17 16:20:54;;;;;;;;;1.50;1.50;;;;;45.66;7.52;101973.94;5111346;27;49630;-76
2022/07/17 16:23:19;;;;;;;;;0.75;0.75;;;;;46.10;7.60;101987.59;5110997;27;49854;-74
2022/07/17 16:25:45;;;;;;;;;3.25;3.25;;;;;46.57;7.75;102002.72;5109148;27;50001;-66
2022/07/17 16:28:11;;;;;;;;;6.00;3.00;;;;;46.91;6.52;101995.06;5106347;27;49926;-72
2022/07/17 16:30:36;;;;;;;;;2.50;2.50;;;;;47.54;7.29;101994.19;5107345;27;49726;-64
2022/07/17 16:33:02;;;;;;;;;1.50;1.50;;;;;47.34;6.86;101990.09;5125077;27;49691;-65
2022/07/17 16:35:28;;;;;;;;;3.00;1.75;;;;;47.55;7.21;101984.78;5098788;27;49708;-74
2022/07/17 16:37:53;;;;;;;;;3.00;2.00;;;;;46.97;7.40;101957.34;5102065;27;50675;-73
2022/07/17 16:40:19;;;;;;;;;1.25;1.00;;;;;45.06;8.87;101973.09;5090209;27;49781;-66
2022/07/17 16:42:44;;;;;;;;;1.25;1.25;;;;;43.35;9.64;101955.72;5088450;27;49902;-64
2022/07/17 16:45:10;;;;;;;;;0.75;0.50;;;;;41.95;10.17;101941.69;5095983;27;49850;-69
2022/07/17 16:47:35;;;;;;;;;1.75;1.75;;;;;40.74;10.48;101938.03;5108937;27;53471;-64
2022/07/17 16:50:00;;;;;;;;;2.25;2.25;;;;;39.74;10.91;101964.94;5108971;27;49837;-65
2022/07/17 16:52:26;;;;;;;;;1.00;1.00;;;;;38.86;11.40;101934.63;5091709;27;50141;-64
2022/07/17 16:54:52;;;;;;;;;1.50;1.50;;;;;38.28;12.64;101961.13;5089703;27;49627;-66
2022/07/17 16:57:18;;;;;;;;;3.00;3.00;;;;;37.71;12.40;101954.44;5090397;27;51071;-66
2022/07/17 16:59:44;;;;;;;;;2.00;2.00;;;;;37.14;12.94;101924.84;5103185;27;49715;-72
2022/07/17 17:02:10;;;;;;;;;2.75;1.25;;;;;36.81;13.41;101949.16;5107409;27;49872;-64
2022/07/17 17:04:35;;;;;;;;;1.75;1.75;;;;;36.36;13.18;101946.81;5110816;27;49760;-68
2022/07/17 17:07:00;;;;;;;;;2.25;2.25;;;;;36.22;13.66;101948.72;5107628;27;49779;-71
2022/07/17 17:09:26;;;;;;;;;2.00;2.00;;;;;35.92;14.35;101941.63;5108472;27;50020;-69
2022/07/17 17:11:51;;;;;;;;;3.00;3.00;;;;;35.64;14.38;101945.31;5106949;27;49874;-72
2022/07/17 17:14:17;;;;;;;;;2.75;2.75;;;;;35.03;14.64;101882.84;5108495;27;50077;-66
2022/07/17 17:16:42;;;;;;;;;2.00;2.00;;;;;35.27;14.99;101944.06;5110385;27;50494;-73
2022/07/17 17:19:11;;;;;;;;;2.25;2.00;;;;;35.09;15.19;101917.94;5109804;27;49791;-66
2022/07/17 17:21:37;;;;;;;;;2.00;2.00;;;;;34.85;14.94;101917.63;5100927;27;49732;-64
2022/07/17 17:24:02;;;;;;;;;2.00;2.00;;;;;34.62;15.24;101909.03;5094796;27;51430;-64
2022/07/17 17:26:28;;;;;;;;;2.75;2.75;;;;;34.65;15.04;101927.94;5093638;27;50176;-64
2022/07/17 17:28:54;;;;;;;;;2.75;2.75;;;;;34.58;15.30;101922.97;5073699;27;50090;-64
2022/07/17 17:31:19;;;;;;;;;3.00;3.00;;;;;34.58;14.99;101934.75;5072700;27;50074;-72
2022/07/17 17:33:45;;;;;;;;;2.25;2.25;;;;;34.35;15.19;101927.03;5076037;27;49743;-64
2022/07/17 17:36:11;;;;;;;;;4.00;3.00;;;;;34.20;14.44;101926.16;5078173;27;50405;-64
2022/07/17 17:38:36;;;;;;;;;2.25;1.50;;;;;33.85;15.71;101900.97;5075775;27;49863;-63
2022/07/17 17:41:02;;;;;;;;;1.00;1.00;;;;;33.69;15.59;101891.97;5073854;27;49821;-68
2022/07/17 17:43:27;;;;;;;;;2.00;2.00;;;;;33.70;15.22;101910.91;5075283;27;49774;-69
2022/07/17 17:45:54;;;;;;;;;1.00;1.00;;;;;33.69;15.76;101909.16;5075372;27;50352;-72
2022/07/17 17:48:23;;;;;;;;;1.00;1.00;;;;;32.35;15.79;101729.06;5079821;27;49765;-75
2022/07/17 17:50:48;;;;;;;;;5.00;2.50;;;;;33.40;15.98;101916.28;5078995;27;49799;-65
2022/07/17 17:53:14;;;;;;;;;2.00;1.00;;;;;33.41;15.74;101909.00;5089495;27;50260;-70
2022/07/17 17:55:40;;;;;;;;;4.00;3.00;;;;;33.32;15.79;101913.09;5086754;27;50992;-71
2022/07/17 17:58:05;;;;;;;;;1.50;1.50;;;;;33.31;15.96;101931.25;5089215;27;49772;-66
2022/07/17 18:00:31;;;;;;;;;2.50;1.25;;;;;33.21;16.09;101926.44;5096072;27;49763;-66
2022/07/17 18:02:56;;;;;;;;;1.00;1.00;;;;;33.15;16.24;101915.88;5096006;27;49521;-65
2022/07/17 18:05:22;;;;;;;;;2.50;2.00;;;;;32.99;16.52;101889.50;5081899;27;50840;-70
2022/07/17 18:07:47;;;;;;;;;2.75;2.75;;;;;33.00;16.53;101915.75;5079924;27;49708;-64
2022/07/17 18:10:13;;;;;;;;;3.00;3.00;;;;;32.79;16.72;101861.63;5095467;27;49937;-71
2022/07/17 18:12:40;;;;;;;;;2.50;2.50;;;;;32.24;16.94;101785.78;5080974;27;51018;-62
2022/07/17 18:15:06;;;;;;;;;1.75;1.75;;;;;32.09;16.78;101763.03;5078267;27;49619;-63
2022/07/17 18:17:33;;;;;;;;;3.75;2.75;;;;;32.61;17.36;101866.22;5074771;27;49791;-64
2022/07/17 18:19:58;;;;;;;;;3.00;3.00;;;;;32.70;17.32;101895.63;5075632;27;50180;-75
2022/07/17 18:22:23;;;;;;;;;3.50;3.25;;;;;32.55;17.25;101902.78;5075259;27;49743;-63
2022/07/17 18:24:49;;;;;;;;;4.00;4.00;;;;;32.44;17.33;101907.91;5075052;27;50964;-66
2022/07/17 18:27:14;;;;;;;;;1.00;1.00;;;;;32.07;17.55;101860.03;5074950;27;49745;-69
2022/07/17 18:29:40;;;;;;;;;1.50;1.50;;;;;32.39;17.89;101912.69;5082673;27;50001;-72
2022/07/17 18:32:05;;;;;;;;;5.50;2.75;;;;;32.09;17.62;101880.72;5094890;27;49810;-74
2022/07/17 18:34:34;;;;;;;;;2.50;2.50;;;;;31.56;17.94;101797.44;5094260;27;51078;-68
2022/07/17 18:36:59;;;;;;;;;2.50;2.25;;;;;31.02;17.98;101725.94;5095315;27;49604;-66
2022/07/17 18:39:25;;;;;;;;;2.00;2.00;;;;;32.02;18.24;101894.69;5095218;27;49650;-70
2022/07/17 18:41:50;;;;;;;;;3.75;2.75;;;;;31.50;17.94;101824.00;5094069;27;49618;-66
2022/07/17 18:44:16;;;;;;;;;1.50;1.50;;;;;32.05;18.17;101921.72;5094926;27;49647;-67
2022/07/17 18:46:41;;;;;;;;;2.25;1.25;;;;;31.90;18.28;101907.06;5095264;27;49595;-70
2022/07/17 18:49:07;;;;;;;;;3.25;3.25;;;;;31.97;18.40;101945.66;5095252;27;49719;-65
2022/07/17 18:51:32;;;;;;;;;4.75;2.00;;;;;31.47;18.54;101873.00;5095347;27;49936;-71
2022/07/17 18:53:58;;;;;;;;;5.75;4.50;;;;;31.77;18.70;101930.34;5094950;27;50258;-63
2022/07/17 18:56:23;;;;;;;;;2.50;2.50;;;;;31.71;18.61;101930.59;5095148;27;49812;-71
2022/07/17 18:58:48;;;;;;;;;3.75;3.75;;;;;31.69;18.52;101949.69;5094977;27;49816;-67
2022/07/17 19:01:14;;;;;;;;;4.25;4.25;;;;;31.45;18.70;101923.72;5095102;27;50006;-70
2022/07/17 19:03:40;;;;;;;;;3.25;3.25;;;;;31.24;19.28;101893.97;5094985;27;49795;-64
2022/07/17 19:06:06;;;;;;;;;2.50;2.50;;;;;31.44;19.49;101939.13;5094829;27;49686;-71
2022/07/17 19:08:32;;;;;;;;;4.00;4.00;;;;;31.32;22.24;101927.03;5094899;27;49849;-66
2022/07/17 19:10:57;;;;;;;;;3.00;3.00;;;;;30.87;19.04;101893.91;5094539;27;49850;-72
2022/07/17 19:13:23;;;;;;;;;5.00;3.50;;;;;30.92;20.34;101881.03;5094281;27;50681;-67
2022/07/17 19:15:49;;;;;;;;;4.00;2.75;;;;;31.29;20.37;101948.03;5094677;27;49720;-73
2022/07/17 19:18:14;;;;;;;;;3.50;3.50;;;;;31.25;20.92;101949.97;5094648;27;49812;-66
2022/07/17 19:20:40;;;;;;;;;4.00;4.00;;;;;30.76;20.45;101878.13;5094768;27;50154;-73
2022/07/17 19:23:07;;;;;;;;;3.00;3.00;;;;;31.13;21.11;101944.22;5094458;27;50327;-65
2022/07/17 19:25:33;;;;;;;;;3.50;2.50;;;;;30.73;20.47;101910.81;5094522;27;49539;-72
2022/07/17 19:27:59;;;;;;;;;2.25;2.25;;;;;30.90;21.08;101940.75;5094301;27;49774;-71
2022/07/17 19:30:24;;;;;;;;;1.75;1.75;;;;;30.87;20.81;101934.56;5094478;27;49696;-63
2022/07/17 19:32:50;;;;;;;;;2.50;2.50;;;;;30.75;20.61;101934.19;5094310;27;49854;-64
2022/07/17 19:35:15;;;;;;;;;3.75;3.75;;;;;30.21;21.04;101858.94;5092878;27;49758;-70
2022/07/17 19:37:41;;;;;;;;;4.00;3.25;;;;;30.64;20.67;101930.16;5094596;27;49748;-66
2022/07/17 19:40:07;;;;;;;;;3.50;3.50;;;;;30.41;20.56;101906.81;5094467;27;49591;-73
2022/07/17 19:42:32;;;;;;;;;4.50;3.50;;;;;30.61;22.09;101949.28;5093875;27;49700;-70
2022/07/17 19:44:58;;;;;;;;;5.75;3.75;;;;;30.57;22.03;101956.63;5093827;27;49652;-71
2022/07/17 19:47:24;;;;;;;;;4.50;4.50;;;;;29.93;21.83;101878.16;5094359;27;49757;-78
2022/07/17 19:49:49;;;;;;;;;4.00;4.00;;;;;30.10;21.36;101905.41;5094252;27;49547;-64
2022/07/17 19:52:14;;;;;;;;;3.00;3.00;;;;;30.29;21.18;101962.38;5094077;27;49711;-63
2022/07/17 19:54:40;;;;;;;;;4.25;4.25;;;;;29.38;21.64;101839.81;5094214;27;49726;-64
2022/07/17 19:57:06;;;;;;;;;5.50;5.50;;;;;28.95;21.59;101783.84;5093920;27;49667;-66
2022/07/17 19:59:32;;;;;;;;;3.75;3.75;;;;;29.96;22.16;101939.41;5093012;27;49765;-65
2022/07/17 20:01:57;;;;;;;;;4.50;4.50;;;;;30.09;22.86;101973.16;5094019;27;49762;-63
2022/07/17 20:04:22;;;;;;;;;5.75;5.00;;;;;29.80;22.76;101936.44;5093769;27;49573;-69
2022/07/17 20:06:48;;;;;;;;;6.00;6.00;;;;;29.80;23.08;101953.56;5094046;27;49819;-70
2022/07/17 20:09:13;;;;;;;;;8.75;6.25;;;;;29.84;22.89;101978.69;5093865;27;49823;-67
2022/07/17 20:11:38;;;;;;;;;8.00;6.25;;;;;29.57;22.93;101954.50;5093752;27;50199;-66
2022/07/17 20:14:04;;;;;;;;;10.00;7.25;;;;;29.71;22.64;101989.09;5093692;27;49800;-70
2022/07/17 20:16:29;;;;;;;;;6.00;5.75;;;;;29.52;22.57;101961.00;5091368;27;50473;-65
2022/07/17 20:18:55;;;;;;;;;3.50;3.50;;;;;29.55;22.97;101983.44;5098473;27;50041;-69
2022/07/17 20:21:21;;;;;;;;;6.75;6.75;;;;;29.45;23.27;101973.88;5113238;27;50875;-67
2022/07/17 20:23:47;;;;;;;;;5.75;4.75;;;;;29.20;23.49;101956.81;5100551;27;49678;-66
2022/07/17 20:26:12;;;;;;;;;6.75;6.75;;;;;29.40;23.89;102000.22;5094047;27;49600;-63
2022/07/17 20:28:39;;;;;;;;;8.00;6.00;;;;;29.32;23.83;101989.69;5093946;27;49809;-69
2022/07/17 20:31:04;;;;;;;;;9.00;9.00;;;;;29.26;24.29;101989.06;5092415;27;50944;-67
2022/07/17 20:33:30;;;;;;;;;8.50;6.50;;;;;29.10;24.08;101974.34;5083876;27;50131;-70
2022/07/17 20:35:56;;;;;;;;;9.25;9.25;;;;;29.13;23.74;101985.03;5098979;27;49748;-64
2022/07/17 20:38:22;;;;;;;;;8.00;7.75;;;;;29.08;23.86;101990.63;5114502;27;49600;-65
2022/07/17 20:40:48;;;;;;;;;7.50;7.50;;;;;29.10;23.75;101990.56;5093924;27;50593;-64
2022/07/17 20:43:15;;;;;;;;;8.25;7.75;;;;;29.00;23.44;101982.78;5093394;27;49774;-65
2022/07/17 20:45:41;;;;;;;;;8.25;7.25;;;;;28.88;23.21;101975.09;5095927;27;49817;-65
2022/07/17 20:48:06;;;;;;;;;6.25;6.25;;;;;28.99;22.86;102001.78;5093380;27;49900;-64
2022/07/17 20:50:32;;;;;;;;;8.25;7.25;;;;;28.68;23.06;101958.72;5091137;27;51410;-65
2022/07/17 20:52:57;;;;;;;;;7.25;7.25;;;;;28.83;23.13;101996.00;5103207;27;49724;-65
2022/07/17 20:55:23;;;;;;;;;8.00;8.00;;;;;28.84;23.36;102011.28;5093357;27;49699;-66
2022/07/17 20:57:49;;;;;;;;;9.75;8.00;;;;;28.75;23.48;101988.16;5096269;27;49968;-65
2022/07/17 21:00:14;;;;;;;;;8.00;8.00;;;;;28.81;23.93;101997.88;5102336;27;50638;-65
2022/07/17 21:02:40;;;;;;;;;14.50;10.25;;;;;28.65;23.99;101983.13;5117309;27;49694;-64
2022/07/17 21:05:06;;;;;;;;;11.00;11.00;;;;;28.72;24.34;101999.09;5117388;27;49850;-65
2022/07/17 21:07:31;;;;;;;;;13.00;11.75;;;;;28.60;24.46;101988.72;5117630;27;50383;-66
2022/07/17 21:09:57;;;;;;;;;8.50;7.00;;;;;28.67;24.74;102005.59;5110451;27;50465;-66
2022/07/17 21:12:22;;;;;;;;;9.25;9.25;;;;;28.42;24.81;101976.72;5100434;27;49718;-66
2022/07/17 21:14:49;;;;;;;;;11.25;11.25;;;;;28.56;24.82;102005.06;5117337;27;49599;-67
2022/07/17 21:17:14;;;;;;;;;11.00;11.00;;;;;28.45;24.61;102006.31;5117205;27;49950;-66
2022/07/17 21:19:39;;;;;;;;;10.50;8.25;;;;;28.41;24.75;102012.78;5117114;27;49674;-65
2022/07/17 21:22:05;;;;;;;;;15.00;13.25;;;;;28.28;24.92;102015.88;5117110;27;49771;-67
2022/07/17 21:24:30;;;;;;;;;12.50;10.25;;;;;28.13;24.90;102001.09;5117078;27;49658;-66
2022/07/17 21:26:56;;;;;;;;;11.50;11.50;;;;;28.24;24.96;102018.69;5096408;27;49969;-65
2022/07/17 21:29:21;;;;;;;;;11.00;9.75;;;;;28.27;25.34;102030.31;5107150;27;49857;-66
2022/07/17 21:31:47;;;;;;;;;12.50;10.00;;;;;28.20;25.33;102022.44;5114938;27;49968;-65
2022/07/17 21:34:12;;;;;;;;;14.00;10.50;;;;;28.12;25.41;102019.09;5096500;27;49684;-67
2022/07/17 21:36:37;;;;;;;;;10.00;9.00;;;;;28.12;25.16;102032.59;5099465;27;49743;-66
2022/07/17 21:39:03;;;;;;;;;9.50;7.75;;;;;27.97;25.77;102014.19;5116993;27;50361;-66
2022/07/17 21:41:29;;;;;;;;;8.75;8.00;;;;;27.93;25.29;102016.13;5116945;27;49808;-67
2022/07/17 21:43:54;;;;;;;;;11.25;8.75;;;;;27.99;25.91;102017.75;5115346;27;49550;-65
2022/07/17 21:46:19;;;;;;;;;7.50;7.50;;;;;28.03;25.44;102010.41;5096241;27;49534;-66
2022/07/17 21:48:45;;;;;;;;;10.25;10.25;;;;;28.00;25.95;101981.72;5096154;27;49731;-66
2022/07/17 21:51:11;;;;;;;;;10.50;8.50;;;;;28.01;26.00;101972.69;5095933;27;49664;-66
2022/07/17 21:53:36;;;;;;;;;8.75;8.75;;;;;27.98;25.80;101955.69;5096595;27;49738;-65
2022/07/17 21:56:02;;;;;;;;;9.00;8.00;;;;;27.88;26.01;101926.31;5096287;27;49821;-65
2022/07/17 21:58:28;;;;;;;;;9.25;8.00;;;;;27.95;25.76;101927.00;5095775;27;50313;-65
2022/07/17 22:00:55;;;;;;;;;9.25;8.50;;;;;27.90;25.90;101916.38;5095936;27;49896;-66
2022/07/17 22:03:21;;;;;;;;;9.25;9.25;;;;;27.82;25.80;101921.13;5096072;27;49568;-67
2022/07/17 22:05:47;;;;;;;;;6.50;5.00;;;;;27.76;26.29;101921.31;5096034;27;49629;-66
2022/07/17 22:08:12;;;;;;;;;9.00;7.75;;;;;27.72;26.15;101922.38;5095637;27;49663;-66
2022/07/17 22:10:38;;;;;;;;;9.50;9.00;;;;;27.71;26.56;101909.81;5095516;27;49847;-66
2022/07/17 22:13:03;;;;;;;;;11.00;9.25;;;;;27.64;26.78;101906.38;5095591;27;49784;-67
2022/07/17 22:15:29;;;;;;;;;11.50;10.25;;;;;27.63;26.71;101910.03;5095754;27;49703;-66
2022/07/17 22:17:55;;;;;;;;;10.00;9.50;;;;;27.44;26.49;101897.16;5095527;27;50712;-67
2022/07/17 22:20:20;;;;;;;;;12.00;12.00;;;;;27.47;26.52;101953.69;5095478;27;49707;-67
2022/07/17 22:22:46;;;;;;;;;9.50;8.50;;;;;27.26;26.72;101969.59;5095770;27;49745;-67
2022/07/17 22:25:13;;;;;;;;;7.75;6.75;;;;;27.02;26.79;101970.25;5095924;27;49638;-66
2022/07/17 22:27:38;;;;;;;;;10.75;10.50;;;;;27.14;27.40;102002.31;5095389;27;50715;-66
2022/07/17 22:30:06;;;;;;;;;10.50;10.50;;;;;27.08;27.26;101987.19;5095191;27;49773;-65
2022/07/17 22:32:33;;;;;;;;;9.50;9.50;;;;;26.99;27.50;101991.91;5095543;27;49821;-66
2022/07/17 22:34:58;;;;;;;;;12.75;12.75;;;;;26.99;27.32;101994.59;5095616;27;49809;-66
2022/07/17 22:37:23;;;;;;;;;12.50;10.75;;;;;27.00;27.61;101988.28;5095299;27;49703;-65
2022/07/17 22:39:49;;;;;;;;;13.75;13.25;;;;;26.94;27.69;102000.13;5095429;27;49699;-66
2022/07/17 22:42:14;;;;;;;;;15.25;15.00;;;;;26.60;28.02;101953.47;5095151;27;49763;-66
2022/07/17 22:44:40;;;;;;;;;15.75;15.75;;;;;26.83;28.01;101996.84;5095327;27;49929;-67
2022/07/17 22:47:05;;;;;;;;;17.75;15.25;;;;;26.77;28.01;101995.19;5094962;27;50889;-66
2022/07/17 22:49:30;;;;;;;;;15.75;14.75;;;;;26.80;27.77;101987.03;5094990;27;49723;-65
2022/07/17 22:51:56;;;;;;;;;17.50;16.00;;;;;26.52;28.14;101940.22;5095330;27;49699;-65
2022/07/17 22:54:21;;;;;;;;;15.00;14.00;;;;;26.82;27.49;101984.28;5095226;27;49698;-66
2022/07/17 22:56:47;;;;;;;;;17.75;16.50;;;;;26.92;27.84;101990.31;5094865;27;50420;-65
2022/07/17 22:59:12;;;;;;;;;14.50;12.75;;;;;26.81;27.81;101979.81;5093670;27;49698;-65
2022/07/17 23:01:37;;;;;;;;;10.00;9.75;;;;;26.82;27.70;101997.75;5095069;27;49782;-64
2022/07/17 23:04:03;;;;;;;;;14.00;13.50;;;;;26.81;27.69;101990.59;5095200;27;49756;-64
2022/07/17 23:06:29;;;;;;;;;15.00;11.50;;;;;26.86;27.94;101991.38;5094960;27;49685;-65
2022/07/17 23:08:54;;;;;;;;;11.75;11.75;;;;;26.84;28.17;101990.53;5094551;27;49758;-65
2022/07/17 23:11:20;;;;;;;;;14.00;14.00;;;;;26.80;28.36;101997.81;5094792;27;49921;-64
2022/07/17 23:13:45;;;;;;;;;17.50;14.75;;;;;26.61;28.35;101974.09;5094759;27;49741;-64
2022/07/17 23:16:11;;;;;;;;;13.00;10.75;;;;;26.46;28.37;101952.06;5094647;27;49774;-64
2022/07/17 23:18:36;;;;;;;;;14.00;11.50;;;;;26.57;29.06;101989.47;5094158;27;49718;-64
2022/07/17 23:21:02;;;;;;;;;13.75;13.75;;;;;26.51;28.92;102006.66;5101293;27;49703;-66
2022/07/17 23:23:27;;;;;;;;;15.00;13.75;;;;;26.52;29.34;102004.84;5115863;27;49639;-64
2022/07/17 23:25:53;;;;;;;;;11.50;9.25;;;;;26.43;29.25;101984.41;5095969;27;49638;-64
2022/07/17 23:28:18;;;;;;;;;13.25;12.00;;;;;26.44;28.92;101994.31;5092683;27;49896;-64
2022/07/17 23:30:44;;;;;;;;;11.75;10.25;;;;;26.41;29.03;102004.25;5093171;27;49624;-65
2022/07/17 23:33:09;;;;;;;;;8.25;7.00;;;;;26.25;29.04;101974.13;5093518;27;49604;-66
2022/07/17 23:35:34;;;;;;;;;10.00;10.00;;;;;26.35;29.30;101999.88;5092880;27;49781;-66
2022/07/17 23:38:00;;;;;;;;;12.25;10.25;;;;;26.32;29.79;101999.94;5094536;27;49715;-65
2022/07/17 23:40:26;;;;;;;;;10.50;10.50;;;;;26.20;29.56;101990.38;5092753;27;49647;-65
2022/07/17 23:42:52;;;;;;;;;11.75;10.75;;;;;26.15;30.19;101994.06;5092751;27;49960;-64
2022/07/17 23:45:17;;;;;;;;;12.75;11.75;;;;;26.11;30.29;101984.31;5092659;27;49829;-64
2022/07/17 23:47:43;;;;;;;;;11.50;11.50;;;;;26.14;29.93;101984.25;5092791;27;49564;-65
2022/07/17 23:50:09;;;;;;;;;13.00;11.00;;;;;26.06;30.14;101978.19;5092829;27;49894;-66
2022/07/17 23:52:35;;;;;;;;;16.00;14.75;;;;;25.92;30.94;101989.25;5092871;27;49885;-66
2022/07/17 23:55:00;;;;;;;;;15.75;13.50;;;;;25.89;30.45;101978.59;5093526;27;50440;-64
2022/07/17 23:57:26;;;;;;;;;15.25;14.25;;;;;25.87;30.37;101975.94;5092626;27;49729;-64
2022/07/17 23:59:52;;;;;;;;;16.50;13.75;;;;;25.89;31.08;101986.66;5092735;27;49842;-65
